KHRO

Boone County Airport

Harrison, Arkansas, USA
METAR KHRO 161453Z AUTO 28005KT 10SM CLR 11/01 A3015 RMK AO2 SLP212 T01060006 53013
Observed Flight Rules
Nov-16 @ 14:53 UTC (an hour ago) Visual Flight Rules
Wind Visibility Clouds
280° at 5 knots 10 miles
  • Clear skies
Temperatures Readings
Current 11°C / 52°F
Dewpoint 1°C / 34°F
Humidity 50%
Altimeter 30.15" Hg
Pressure 1021.2 hPa
Elevation 417
METAR KHRO 161453Z AUTO 28005KT 10SM CLR 11/01 A3015 RMK AO2 SLP212 T01060006 53013
Observed Flight Rules
Nov-16 @ 14:53 UTC
(an hour ago)
VFR
Wind Visibility
280° at 5 knots 10 miles
Clouds
  • Clear skies
Temperature Dewpoint
11°C / 52°F 1°C / 34°F
Humidity Altimeter Pressure
50% 30.15" Hg 1021.2 hPa